Time;durP1;ratioP1;P1;durP2;ratioP2;P2;SDS_P1;SDS_P2;PMS_P1;PMS_P2;Temp;Humidity;BMP_temperature;BMP_pressure;BME280_temperature;BME280_humidity;BME280_pressure;Samples;Min_cycle;Max_cycle;Signal;HPM_P1;HPM_P2
2022/12/29 08:52:28;;;;;;;17.02;11.32;;;;;;;;;;6017550;23;20385;-88
2022/12/29 09:49:42;;;;;;;14.93;10.70;;;;;;;;;;6020505;23;20127;-88
2022/12/29 09:52:14;;;;;;;16.42;11.32;;;;;;;;;;6015763;23;20011;-83
2022/12/29 09:54:51;;;;;;;14.68;10.90;;;;;;;;;;6039677;23;20434;-82
2022/12/29 09:57:23;;;;;;;15.50;10.85;;;;;;;;;;6040351;23;20323;-89
2022/12/29 09:59:52;;;;;;;13.27;10.73;;;;;;;;;;6041510;23;20003;-92
2022/12/29 10:02:30;;;;;;;16.98;9.85;;;;;;;;;;6016698;23;20003;-89
2022/12/29 10:04:56;;;;;;;11.45;8.98;;;;;;;;;;6041506;23;20019;-91
2022/12/29 10:07:50;;;;;;;14.75;9.55;;;;;;;;;;6039712;23;20016;-87
2022/12/29 10:10:23;;;;;;;11.75;9.70;;;;;;;;;;6016080;23;20335;-87
2022/12/29 10:12:57;;;;;;;12.38;8.90;;;;;;;;;;6041299;23;20392;-87
2022/12/29 10:15:56;;;;;;;13.88;10.32;;;;;;;;;;6039437;23;20038;-87
2022/12/29 10:18:49;;;;;;;13.68;9.90;;;;;;;;;;6041317;23;20008;-87
2022/12/29 10:22:02;;;;;;;15.48;10.60;;;;;;;;;;6016054;23;20015;-88
2022/12/29 10:24:29;;;;;;;13.95;9.52;;;;;;;;;;6028077;23;20011;-88
2022/12/29 10:26:57;;;;;;;13.40;9.57;;;;;;;;;;6016931;23;20007;-88
2022/12/29 10:29:36;;;;;;;16.73;10.30;;;;;;;;;;6015957;23;20398;-88
2022/12/29 10:32:25;;;;;;;14.73;9.73;;;;;;;;;;6040974;23;20427;-88
2022/12/29 10:34:58;;;;;;;13.45;9.35;;;;;;;;;;6041256;23;20014;-88
2022/12/29 10:37:46;;;;;;;11.68;9.52;;;;;;;;;;6015780;23;19999;-86
2022/12/29 10:40:27;;;;;;;10.85;8.10;;;;;;;;;;6015840;23;20007;-88
2022/12/29 10:42:56;;;;;;;8.43;7.55;;;;;;;;;;6040892;23;20007;-88
2022/12/29 10:45:25;;;;;;;10.37;7.13;;;;;;;;;;6015626;23;20131;-88
2022/12/29 10:47:57;;;;;;;10.15;7.32;;;;;;;;;;6039738;23;20431;-90
2022/12/29 10:50:24;;;;;;;10.80;6.65;;;;;;;;;;6040775;23;20060;-88
2022/12/29 10:52:52;;;;;;;9.95;6.95;;;;;;;;;;6040969;23;20050;-87
2022/12/29 10:55:27;;;;;;;9.93;6.82;;;;;;;;;;6040768;23;20010;-92
2022/12/29 10:57:56;;;;;;;9.23;6.72;;;;;;;;;;6015689;23;20011;-88
2022/12/29 11:00:22;;;;;;;8.50;6.53;;;;;;;;;;6040805;23;20030;-87
2022/12/29 11:03:15;;;;;;;8.32;6.13;;;;;;;;;;6041099;23;20427;-86
2022/12/29 11:06:04;;;;;;;7.57;6.20;;;;;;;;;;6040647;23;20007;-86
2022/12/29 11:08:40;;;;;;;7.03;6.25;;;;;;;;;;6040613;23;19999;-86
2022/12/29 11:11:09;;;;;;;8.10;6.47;;;;;;;;;;6043776;23;20019;-85
2022/12/29 11:13:51;;;;;;;8.63;5.97;;;;;;;;;;6041519;23;20411;-85
2022/12/29 11:16:34;;;;;;;7.05;6.13;;;;;;;;;;6040700;23;20317;-84
2022/12/29 11:19:01;;;;;;;7.97;6.47;;;;;;;;;;6040613;23;20003;-86
2022/12/29 11:21:39;;;;;;;9.65;6.93;;;;;;;;;;6042237;23;20383;-93
2022/12/29 11:24:20;;;;;;;9.52;7.53;;;;;;;;;;6040856;23;20455;-90
2022/12/29 11:26:46;;;;;;;10.27;7.90;;;;;;;;;;6015058;23;20070;-92
2022/12/29 11:29:22;;;;;;;12.38;8.98;;;;;;;;;;6041690;23;20074;-86
2022/12/29 11:31:50;;;;;;;12.85;9.80;;;;;;;;;;6041164;23;20090;-85
2022/12/29 11:34:19;;;;;;;13.68;10.65;;;;;;;;;;6040778;23;20433;-86
2022/12/29 11:36:45;;;;;;;13.13;9.02;;;;;;;;;;6040959;23;20391;-84
2022/12/29 11:39:43;;;;;;;12.30;9.70;;;;;;;;;;6040827;23;20007;-86
2022/12/29 11:42:17;;;;;;;13.07;9.43;;;;;;;;;;6040494;23;20071;-84
2022/12/29 11:44:46;;;;;;;12.02;9.23;;;;;;;;;;6040671;23;20007;-85
2022/12/29 11:47:27;;;;;;;14.23;9.25;;;;;;;;;;6040237;23;20011;-89
2022/12/29 11:49:57;;;;;;;14.07;8.70;;;;;;;;;;6040614;23;20007;-85
2022/12/29 11:52:25;;;;;;;11.18;7.85;;;;;;;;;;6040962;23;20004;-91
2022/12/29 11:54:52;;;;;;;8.90;6.85;;;;;;;;;;6040485;23;20012;-88
2022/12/29 11:57:20;;;;;;;10.13;7.60;;;;;;;;;;6040837;23;20010;-92
2022/12/29 11:59:55;;;;;;;13.65;9.27;;;;;;;;;;6039675;23;20579;-85
2022/12/29 12:02:33;;;;;;;11.65;8.55;;;;;;;;;;6041768;23;20007;-90
2022/12/29 12:05:08;;;;;;;11.63;8.70;;;;;;;;;;6040900;23;20400;-86
2022/12/29 12:07:45;;;;;;;10.55;7.85;;;;;;;;;;6041203;23;20027;-85
2022/12/29 12:10:29;;;;;;;11.82;8.15;;;;;;;;;;6040704;23;20425;-88
2022/12/29 12:13:52;;;;;;;11.00;8.32;;;;;;;;;;6040258;23;20014;-85
2022/12/29 12:16:21;;;;;;;11.90;8.52;;;;;;;;;;6009486;23;20012;-85
2022/12/29 12:18:53;;;;;;;12.17;8.17;;;;;;;;;;5985805;23;20039;-86
2022/12/29 12:21:31;;;;;;;11.57;8.85;;;;;;;;;;6029288;23;20091;-85
2022/12/29 12:24:27;;;;;;;9.75;7.97;;;;;;;;;;6040235;23;20004;-90
2022/12/29 12:27:01;;;;;;;9.75;7.97;;;;;;;;;;6039990;23;20035;-86
2022/12/29 12:29:36;;;;;;;12.65;8.27;;;;;;;;;;6040023;23;20018;-86
2022/12/29 12:32:10;;;;;;;21.02;12.02;;;;;;;;;;6014587;23;20022;-86
2022/12/29 12:34:41;;;;;;;18.58;11.60;;;;;;;;;;6039928;23;20023;-85
2022/12/29 12:37:24;;;;;;;15.38;10.00;;;;;;;;;;6039765;23;20010;-85
2022/12/29 12:40:02;;;;;;;13.45;9.93;;;;;;;;;;6014387;23;20011;-88
2022/12/29 12:42:47;;;;;;;15.40;9.77;;;;;;;;;;6039697;23;19999;-87
2022/12/29 12:45:22;;;;;;;15.35;10.27;;;;;;;;;;6014552;23;20011;-87
2022/12/29 12:47:50;;;;;;;14.88;9.68;;;;;;;;;;6039658;23;20012;-87
2022/12/29 12:50:38;;;;;;;17.25;9.98;;;;;;;;;;6040317;23;20011;-87
2022/12/29 12:53:25;;;;;;;16.65;10.95;;;;;;;;;;6040210;23;20003;-85
2022/12/29 12:56:07;;;;;;;15.65;10.25;;;;;;;;;;6040044;23;20007;-85
2022/12/29 12:59:06;;;;;;;15.75;10.60;;;;;;;;;;6039928;23;20437;-86
2022/12/29 13:02:00;;;;;;;16.02;10.63;;;;;;;;;;6040021;23;20003;-86
2022/12/29 13:05:04;;;;;;;18.23;10.80;;;;;;;;;;6015306;23;20090;-87
2022/12/29 13:07:43;;;;;;;15.23;9.88;;;;;;;;;;6011756;23;20086;-86
2022/12/29 13:10:19;;;;;;;14.40;11.18;;;;;;;;;;6040225;23;20011;-86
2022/12/29 13:12:50;;;;;;;13.20;10.07;;;;;;;;;;6014951;23;20050;-84
2022/12/29 13:15:26;;;;;;;13.27;8.75;;;;;;;;;;6039461;23;20014;-86
2022/12/29 13:18:02;;;;;;;13.15;9.15;;;;;;;;;;6014713;23;20094;-86
2022/12/29 13:20:44;;;;;;;8.25;7.00;;;;;;;;;;6039986;23;20007;-87
2022/12/29 13:23:31;;;;;;;8.90;7.35;;;;;;;;;;6040146;23;20030;-87
2022/12/29 13:26:09;;;;;;;9.80;7.07;;;;;;;;;;6039923;23;20094;-87
2022/12/29 13:28:52;;;;;;;11.15;8.45;;;;;;;;;;6040216;23;20086;-86
2022/12/29 13:31:26;;;;;;;11.20;8.02;;;;;;;;;;6040023;23;20000;-87
2022/12/29 13:34:05;;;;;;;11.57;8.82;;;;;;;;;;6039788;23;20019;-86
2022/12/29 13:36:42;;;;;;;9.77;8.15;;;;;;;;;;6041838;23;20078;-87
2022/12/29 13:39:16;;;;;;;9.75;7.85;;;;;;;;;;6041734;23;20009;-86
2022/12/29 13:42:02;;;;;;;13.00;8.18;;;;;;;;;;6041483;23;19999;-87
2022/12/29 13:44:38;;;;;;;9.73;6.95;;;;;;;;;;6041145;23;20050;-86
2022/12/29 13:47:41;;;;;;;10.98;7.43;;;;;;;;;;6016106;23;20011;-86
2022/12/29 13:50:18;;;;;;;9.90;7.78;;;;;;;;;;6016502;23;20014;-86
2022/12/29 13:52:55;;;;;;;9.02;7.97;;;;;;;;;;6041034;23;20003;-86
2022/12/29 13:55:24;;;;;;;10.00;7.80;;;;;;;;;;6041840;23;20003;-87
2022/12/29 13:58:11;;;;;;;10.95;8.20;;;;;;;;;;6041691;23;20008;-87
2022/12/29 14:01:09;;;;;;;9.73;7.30;;;;;;;;;;6041563;23;20443;-87
2022/12/29 14:03:40;;;;;;;9.45;7.43;;;;;;;;;;6039829;23;20098;-86
2022/12/29 14:06:19;;;;;;;8.98;7.32;;;;;;;;;;6016135;23;20022;-86
2022/12/29 14:08:44;;;;;;;9.85;7.65;;;;;;;;;;6041229;23;20008;-87
2022/12/29 14:11:14;;;;;;;9.88;7.32;;;;;;;;;;6016196;23;20389;-86
2022/12/29 14:13:41;;;;;;;10.77;7.55;;;;;;;;;;6041239;23;20039;-87
2022/12/29 14:16:21;;;;;;;11.93;7.30;;;;;;;;;;6041415;23;20427;-87
2022/12/29 14:18:46;;;;;;;10.10;7.90;;;;;;;;;;6041407;23;20386;-87
2022/12/29 14:21:28;;;;;;;10.38;7.35;;;;;;;;;;6041525;23;20004;-86
2022/12/29 14:23:54;;;;;;;8.82;7.43;;;;;;;;;;6041140;23;20007;-86
2022/12/29 14:26:31;;;;;;;10.77;7.63;;;;;;;;;;6041206;23;20034;-87
2022/12/29 14:29:15;;;;;;;8.63;6.80;;;;;;;;;;6041039;23;20011;-86
2022/12/29 14:31:40;;;;;;;12.52;7.30;;;;;;;;;;6041385;23;20007;-86
2022/12/29 14:34:06;;;;;;;10.65;8.35;;;;;;;;;;6015946;23;20011;-87
2022/12/29 14:36:54;;;;;;;9.32;7.32;;;;;;;;;;6041098;23;20029;-86
2022/12/29 14:39:30;;;;;;;9.90;7.13;;;;;;;;;;6015850;23;20439;-87
2022/12/29 14:42:01;;;;;;;10.00;6.53;;;;;;;;;;6041092;23;20010;-87
2022/12/29 14:44:27;;;;;;;9.05;6.32;;;;;;;;;;6040451;23;20003;-86
2022/12/29 14:46:58;;;;;;;8.38;6.65;;;;;;;;;;6040761;23;20066;-86
2022/12/29 14:49:30;;;;;;;7.78;6.43;;;;;;;;;;6040832;23;20459;-87
2022/12/29 14:52:26;;;;;;;7.88;6.63;;;;;;;;;;6041062;23;20327;-87
2022/12/29 14:55:15;;;;;;;9.02;7.05;;;;;;;;;;6041552;23;20011;-89
2022/12/29 14:57:44;;;;;;;10.85;8.35;;;;;;;;;;6015698;23;20086;-87
2022/12/29 15:00:43;;;;;;;10.77;8.30;;;;;;;;;;6041125;23;20015;-89
2022/12/29 15:03:38;;;;;;;12.20;8.52;;;;;;;;;;6039912;23;20007;-89
2022/12/29 15:06:11;;;;;;;9.18;7.30;;;;;;;;;;6042387;23;20013;-87
2022/12/29 15:08:52;;;;;;;10.73;8.32;;;;;;;;;;6017711;23;20435;-87
2022/12/29 15:11:40;;;;;;;11.30;8.75;;;;;;;;;;6017782;23;20094;-87
2022/12/29 15:14:36;;;;;;;14.57;9.50;;;;;;;;;;6039043;23;20042;-87
2022/12/29 15:17:10;;;;;;;12.30;9.07;;;;;;;;;;6040807;23;20491;-88
2022/12/29 15:19:36;;;;;;;11.20;7.85;;;;;;;;;;6040829;23;20014;-87
2022/12/29 15:22:02;;;;;;;8.80;6.82;;;;;;;;;;6039081;23;20004;-88
2022/12/29 15:24:28;;;;;;;14.65;9.27;;;;;;;;;;6040658;23;20011;-86
2022/12/29 15:26:55;;;;;;;11.73;7.90;;;;;;;;;;6040651;23;20064;-87
2022/12/29 15:29:39;;;;;;;10.02;7.25;;;;;;;;;;6040665;23;20012;-87
2022/12/29 15:32:22;;;;;;;7.72;5.68;;;;;;;;;;6040548;23;20415;-88
2022/12/29 15:34:54;;;;;;;7.97;6.10;;;;;;;;;;6040668;23;20454;-88
2022/12/29 15:37:24;;;;;;;11.25;6.30;;;;;;;;;;6040667;23;20026;-87
2022/12/29 15:39:50;;;;;;;7.45;5.93;;;;;;;;;;6040689;23;20071;-88
2022/12/29 15:42:44;;;;;;;7.55;6.10;;;;;;;;;;6040473;23;20062;-88
2022/12/29 15:45:13;;;;;;;9.85;6.32;;;;;;;;;;6040559;23;20050;-87
2022/12/29 15:47:40;;;;;;;11.13;7.97;;;;;;;;;;6040579;23;20023;-88
2022/12/29 15:50:15;;;;;;;12.25;8.00;;;;;;;;;;6040482;23;20007;-88
2022/12/29 15:52:40;;;;;;;11.38;8.00;;;;;;;;;;6040947;23;20014;-87
2022/12/29 15:55:19;;;;;;;11.32;7.72;;;;;;;;;;6040567;23;20007;-87
2022/12/29 15:57:44;;;;;;;16.27;11.93;;;;;;;;;;6015105;23;20094;-87
2022/12/29 16:00:28;;;;;;;14.43;10.70;;;;;;;;;;6015179;23;20086;-87
2022/12/29 16:02:56;;;;;;;13.40;11.07;;;;;;;;;;6015186;23;20011;-87
2022/12/29 16:05:22;;;;;;;11.90;9.60;;;;;;;;;;6040299;23;20035;-88
2022/12/29 16:07:59;;;;;;;23.05;20.63;;;;;;;;;;6015054;23;20030;-88
2022/12/29 16:10:39;;;;;;;20.90;18.83;;;;;;;;;;6040029;23;20003;-87
2022/12/29 16:13:23;;;;;;;15.13;13.63;;;;;;;;;;6040205;23;20037;-88
2022/12/29 16:16:00;;;;;;;11.77;9.32;;;;;;;;;;6039802;23;20094;-87
2022/12/29 16:18:29;;;;;;;10.40;8.13;;;;;;;;;;6015087;23;20042;-88
2022/12/29 16:20:56;;;;;;;10.50;8.07;;;;;;;;;;6041907;23;20086;-88
2022/12/29 16:23:29;;;;;;;10.57;8.15;;;;;;;;;;6014920;23;20011;-87
2022/12/29 16:25:57;;;;;;;9.05;7.75;;;;;;;;;;6040028;23;20007;-88
2022/12/29 16:28:28;;;;;;;12.63;7.57;;;;;;;;;;6015647;23;20007;-88
2022/12/29 16:31:04;;;;;;;10.48;6.93;;;;;;;;;;6015092;23;20003;-87
2022/12/29 16:33:48;;;;;;;8.60;6.10;;;;;;;;;;6040384;23;20011;-88
2022/12/29 16:36:33;;;;;;;8.07;6.50;;;;;;;;;;6040272;23;20007;-87
2022/12/29 16:39:39;;;;;;;11.48;7.88;;;;;;;;;;6038858;23;20012;-87
2022/12/29 16:42:34;;;;;;;9.20;6.75;;;;;;;;;;6015257;23;20067;-88
2022/12/29 16:45:18;;;;;;;11.07;7.15;;;;;;;;;;6040218;23;20011;-87
2022/12/29 16:47:45;;;;;;;13.48;8.82;;;;;;;;;;6040053;23;20052;-88
2022/12/29 16:50:16;;;;;;;17.67;10.30;;;;;;;;;;6040823;23;20003;-88
2022/12/29 16:55:31;;;;;;;13.35;9.80;;;;;;;;;;6005406;23;20232;-88
2022/12/29 16:57:58;;;;;;;14.10;10.57;;;;;;;;;;6013126;23;20051;-90
2022/12/29 17:00:26;;;;;;;15.60;12.10;;;;;;;;;;6013890;23;20042;-89
2022/12/29 17:02:58;;;;;;;18.52;12.25;;;;;;;;;;6040075;23;20435;-88
2022/12/29 17:05:24;;;;;;;15.57;10.77;;;;;;;;;;6040017;23;20030;-90
2022/12/29 17:07:51;;;;;;;13.95;10.43;;;;;;;;;;6041252;23;20059;-88
2022/12/29 17:10:16;;;;;;;12.25;9.00;;;;;;;;;;6042359;23;20026;-90
2022/12/29 17:12:45;;;;;;;12.43;8.98;;;;;;;;;;6016824;23;20004;-86
2022/12/29 17:15:21;;;;;;;13.37;10.70;;;;;;;;;;6041802;23;20003;-91
2022/12/29 17:17:49;;;;;;;11.63;9.07;;;;;;;;;;6041774;23;20011;-91
2022/12/29 17:20:27;;;;;;;13.80;10.38;;;;;;;;;;6016918;23;20011;-88
2022/12/29 17:22:53;;;;;;;8.90;7.15;;;;;;;;;;6041830;23;20003;-90
2022/12/29 17:25:37;;;;;;;10.52;7.95;;;;;;;;;;6041848;23;20003;-86
2022/12/29 17:28:17;;;;;;;11.30;6.88;;;;;;;;;;6016592;23;20007;-94
2022/12/29 17:30:43;;;;;;;10.98;7.72;;;;;;;;;;6041575;23;20491;-89
2022/12/29 17:33:27;;;;;;;11.15;8.25;;;;;;;;;;6041365;23;20003;-87
2022/12/29 17:35:53;;;;;;;12.75;8.95;;;;;;;;;;6016141;23;20395;-86
2022/12/29 17:38:26;;;;;;;20.27;13.88;;;;;;;;;;6016497;23;20896;-90
2022/12/29 17:40:52;;;;;;;33.58;22.75;;;;;;;;;;6040174;23;20007;-87
2022/12/29 17:43:18;;;;;;;20.92;13.23;;;;;;;;;;6041759;23;20035;-90
2022/12/29 17:45:48;;;;;;;13.75;10.40;;;;;;;;;;6039970;23;20014;-89
2022/12/29 17:48:18;;;;;;;32.63;19.33;;;;;;;;;;6041791;23;20000;-89
2022/12/29 17:50:47;;;;;;;20.38;13.02;;;;;;;;;;6040144;23;20003;-90
2022/12/29 17:53:20;;;;;;;15.65;11.35;;;;;;;;;;6039946;23;20007;-86
2022/12/29 17:55:45;;;;;;;14.55;10.05;;;;;;;;;;6041048;23;20090;-86
2022/12/29 17:58:15;;;;;;;16.27;10.57;;;;;;;;;;6041426;23;20039;-89
2022/12/29 18:00:41;;;;;;;19.73;11.95;;;;;;;;;;6041461;23;19999;-87
2022/12/29 18:03:11;;;;;;;25.08;15.77;;;;;;;;;;6041332;23;20004;-89
2022/12/29 18:05:36;;;;;;;104.13;44.97;;;;;;;;;;6015773;23;20094;-92
2022/12/29 18:08:02;;;;;;;29.10;17.35;;;;;;;;;;6039912;23;20039;-89
2022/12/29 18:10:29;;;;;;;26.95;15.07;;;;;;;;;;6041463;23;20007;-89
2022/12/29 18:12:58;;;;;;;24.25;15.82;;;;;;;;;;6015903;23;20003;-87
2022/12/29 18:15:27;;;;;;;28.15;17.60;;;;;;;;;;6041149;23;20014;-90
2022/12/29 18:18:09;;;;;;;27.92;16.92;;;;;;;;;;6041310;23;20082;-90
2022/12/29 18:20:35;;;;;;;24.45;17.30;;;;;;;;;;6041250;23;19999;-90
2022/12/29 18:23:00;;;;;;;30.90;19.95;;;;;;;;;;6039591;23;20089;-88
2022/12/29 18:25:32;;;;;;;27.67;17.23;;;;;;;;;;6041162;23;20331;-90
2022/12/29 18:27:58;;;;;;;24.20;17.23;;;;;;;;;;6016065;23;20012;-90
2022/12/29 18:30:23;;;;;;;23.00;16.83;;;;;;;;;;6015862;23;20009;-89
2022/12/29 18:32:49;;;;;;;23.38;16.13;;;;;;;;;;6044306;23;20067;-95
2022/12/29 18:35:39;;;;;;;22.42;16.75;;;;;;;;;;6043700;23;20026;-90
2022/12/29 18:38:05;;;;;;;31.65;20.65;;;;;;;;;;6016049;23;20090;-92
2022/12/29 18:40:34;;;;;;;67.70;44.47;;;;;;;;;;6015996;23;20439;-91
2022/12/29 18:43:00;;;;;;;34.60;22.70;;;;;;;;;;6016044;23;20007;-89
2022/12/29 18:45:26;;;;;;;32.83;22.20;;;;;;;;;;6015942;23;20069;-89
2022/12/29 18:47:51;;;;;;;37.10;23.30;;;;;;;;;;6015920;23;20012;-89
2022/12/29 18:50:18;;;;;;;62.47;40.83;;;;;;;;;;6039797;23;20011;-89
2022/12/29 18:52:44;;;;;;;40.72;26.90;;;;;;;;;;6039288;23;20033;-88
2022/12/29 18:55:16;;;;;;;35.67;22.13;;;;;;;;;;6040541;23;20011;-88
2022/12/29 18:57:42;;;;;;;38.97;25.88;;;;;;;;;;6040626;23;20019;-88
2022/12/29 19:00:08;;;;;;;65.57;39.20;;;;;;;;;;6040843;23;20127;-87
2022/12/29 19:02:34;;;;;;;30.48;20.05;;;;;;;;;;6040640;23;20135;-88
2022/12/29 19:05:00;;;;;;;38.67;23.73;;;;;;;;;;6040649;23;20003;-90
2022/12/29 19:07:26;;;;;;;51.65;29.40;;;;;;;;;;6040302;23;20045;-86
2022/12/29 19:09:51;;;;;;;25.88;16.77;;;;;;;;;;6040785;23;20538;-88
2022/12/29 19:12:17;;;;;;;22.67;15.60;;;;;;;;;;6040917;23;20003;-88
2022/12/29 19:14:43;;;;;;;33.10;22.83;;;;;;;;;;6040558;23;20003;-88
2022/12/29 19:17:11;;;;;;;29.60;18.85;;;;;;;;;;6040504;23;20030;-86
2022/12/29 19:19:36;;;;;;;31.38;20.00;;;;;;;;;;6040466;23;20058;-88
2022/12/29 19:22:02;;;;;;;27.65;19.52;;;;;;;;;;6039199;23;20086;-88
2022/12/29 19:24:28;;;;;;;83.30;41.45;;;;;;;;;;6039131;23;20027;-91
2022/12/29 19:26:53;;;;;;;30.02;19.63;;;;;;;;;;6015476;23;20007;-89
2022/12/29 19:29:19;;;;;;;25.42;16.55;;;;;;;;;;6040398;23;20082;-90
2022/12/29 19:31:44;;;;;;;29.48;17.42;;;;;;;;;;6038631;23;20443;-89
2022/12/29 19:34:14;;;;;;;106.65;45.63;;;;;;;;;;6038919;23;20486;-89
2022/12/29 19:36:40;;;;;;;67.35;33.10;;;;;;;;;;6039326;23;20011;-91
2022/12/29 19:39:06;;;;;;;174.27;79.15;;;;;;;;;;6037976;23;20094;-92
2022/12/29 19:41:31;;;;;;;48.17;26.38;;;;;;;;;;6038243;23;20043;-89
2022/12/29 19:43:57;;;;;;;23.58;15.68;;;;;;;;;;6038306;23;20011;-89
2022/12/29 19:46:24;;;;;;;21.70;13.93;;;;;;;;;;6040202;23;20007;-89
2022/12/29 19:48:50;;;;;;;22.17;15.95;;;;;;;;;;6040352;23;20034;-89
2022/12/29 19:51:17;;;;;;;28.38;18.38;;;;;;;;;;6014910;23;20007;-90
2022/12/29 19:53:43;;;;;;;37.97;21.00;;;;;;;;;;6038453;23;20074;-90
2022/12/29 19:56:09;;;;;;;30.00;20.00;;;;;;;;;;6040347;23;20019;-93
2022/12/29 19:58:36;;;;;;;27.27;18.08;;;;;;;;;;6040569;23;20007;-91
2022/12/29 20:01:21;;;;;;;24.85;17.02;;;;;;;;;;6040548;23;20003;-91
2022/12/29 20:03:48;;;;;;;26.63;17.10;;;;;;;;;;6038891;23;20014;-91
2022/12/29 20:06:14;;;;;;;28.35;18.60;;;;;;;;;;6039129;23;20018;-92
2022/12/29 20:08:40;;;;;;;65.85;39.15;;;;;;;;;;6040932;23;20004;-93
2022/12/29 20:11:09;;;;;;;35.17;23.20;;;;;;;;;;6041080;23;20008;-93
2022/12/29 20:13:35;;;;;;;29.92;20.88;;;;;;;;;;6039815;23;20332;-92
2022/12/29 20:16:03;;;;;;;30.58;21.98;;;;;;;;;;6039325;23;20011;-91
2022/12/29 20:18:30;;;;;;;28.23;19.15;;;;;;;;;;6040822;23;20491;-93
2022/12/29 20:21:23;;;;;;;25.08;17.90;;;;;;;;;;6040853;23;20030;-93
2022/12/29 20:23:50;;;;;;;23.02;16.50;;;;;;;;;;6038121;23;20090;-91
2022/12/29 20:26:22;;;;;;;24.00;16.23;;;;;;;;;;6039434;23;20011;-93
2022/12/29 20:28:49;;;;;;;23.50;16.23;;;;;;;;;;6040822;23;20023;-92
2022/12/29 20:31:19;;;;;;;25.92;17.05;;;;;;;;;;6039186;23;19999;-92
2022/12/29 20:33:45;;;;;;;27.27;17.58;;;;;;;;;;6016339;23;20011;-93
2022/12/29 20:36:17;;;;;;;26.25;17.15;;;;;;;;;;6039233;23;20010;-93
2022/12/29 20:38:44;;;;;;;23.48;16.20;;;;;;;;;;6039567;23;20007;-93
2022/12/29 20:41:10;;;;;;;25.45;17.10;;;;;;;;;;6039298;23;20502;-92
2022/12/29 20:43:36;;;;;;;22.08;15.20;;;;;;;;;;6039591;23;20010;-92
2022/12/29 20:46:02;;;;;;;22.13;15.35;;;;;;;;;;6041069;23;20007;-90
2022/12/29 20:48:29;;;;;;;21.15;14.63;;;;;;;;;;6039471;23;20007;-95
2022/12/29 20:50:58;;;;;;;21.08;15.02;;;;;;;;;;6039287;23;20031;-92
2022/12/29 20:53:25;;;;;;;18.03;13.73;;;;;;;;;;6040738;23;20003;-92
2022/12/29 20:55:51;;;;;;;19.05;14.13;;;;;;;;;;6039100;23;20019;-94
2022/12/29 20:58:17;;;;;;;19.95;14.00;;;;;;;;;;6040086;23;20007;-92
2022/12/29 21:00:43;;;;;;;19.98;14.07;;;;;;;;;;6041039;23;20014;-93
2022/12/29 21:03:08;;;;;;;20.45;13.50;;;;;;;;;;6016320;23;20014;-92
2022/12/29 21:05:36;;;;;;;15.18;11.77;;;;;;;;;;6037983;23;20059;-91
2022/12/29 21:08:03;;;;;;;15.50;9.57;;;;;;;;;;6038913;23;20057;-90
2022/12/29 21:10:28;;;;;;;14.75;9.60;;;;;;;;;;6014751;23;20011;-90
2022/12/29 21:12:54;;;;;;;17.67;12.32;;;;;;;;;;6039125;23;20131;-94
2022/12/29 21:15:19;;;;;;;16.25;11.57;;;;;;;;;;6039442;23;20431;-90
2022/12/29 21:17:45;;;;;;;16.98;10.80;;;;;;;;;;6021380;23;20308;-91
2022/12/29 21:20:28;;;;;;;16.65;10.70;;;;;;;;;;6045271;23;20034;-91
2022/12/29 21:22:54;;;;;;;15.18;11.48;;;;;;;;;;6040883;23;20015;-91
2022/12/29 21:25:20;;;;;;;13.63;11.88;;;;;;;;;;6014938;23;20167;-91
2022/12/29 21:27:46;;;;;;;13.65;10.20;;;;;;;;;;6038903;23;20070;-92
2022/12/29 21:30:12;;;;;;;12.85;10.40;;;;;;;;;;6038682;23;20015;-92
2022/12/29 21:32:38;;;;;;;13.10;9.35;;;;;;;;;;6014940;23;20007;-91
2022/12/29 21:35:04;;;;;;;13.20;9.98;;;;;;;;;;6038744;23;20038;-91
2022/12/29 21:37:29;;;;;;;12.00;9.30;;;;;;;;;;6039903;23;20007;-92
2022/12/29 21:39:55;;;;;;;11.95;8.57;;;;;;;;;;6038570;23;20070;-92
2022/12/29 21:42:20;;;;;;;15.10;9.40;;;;;;;;;;6038554;23;20011;-92
2022/12/29 21:50:16;;;;;;;13.65;8.73;;;;;;;;;;6040190;23;20022;-91
2022/12/29 21:52:42;;;;;;;13.10;8.80;;;;;;;;;;6015184;23;20026;-93
2022/12/29 21:55:08;;;;;;;14.25;9.13;;;;;;;;;;6016443;23;20022;-93
2022/12/29 22:13:59;;;;;;;20.25;12.77;;;;;;;;;;6041689;23;20075;-91
2022/12/29 22:16:24;;;;;;;20.02;13.70;;;;;;;;;;6040533;23;20011;-92
2022/12/29 22:18:50;;;;;;;19.30;14.13;;;;;;;;;;6016368;23;20094;-92
2022/12/29 22:21:16;;;;;;;23.50;14.77;;;;;;;;;;6040156;23;20035;-92
2022/12/29 22:23:41;;;;;;;21.15;14.93;;;;;;;;;;6040300;23;20139;-91
2022/12/29 22:26:09;;;;;;;18.23;14.77;;;;;;;;;;6040073;23;20007;-92
2022/12/29 22:28:36;;;;;;;19.48;14.93;;;;;;;;;;6040206;23;20022;-92
2022/12/29 22:31:03;;;;;;;20.98;15.07;;;;;;;;;;6040199;23;20007;-92
2022/12/29 22:33:28;;;;;;;19.42;14.35;;;;;;;;;;6016498;23;20003;-91
2022/12/29 22:35:54;;;;;;;21.58;14.70;;;;;;;;;;6039752;23;20043;-91
2022/12/29 22:38:19;;;;;;;18.50;14.93;;;;;;;;;;6040149;23;20277;-90
